Calella, Spain
Current Conditions -  °F | °C
As of 2:00 AM on Tuesday 27 Jan 2015 (Local Time) from LEGE Reporting Station
Few Clouds Few Clouds  
Wind Chill: 39°   Ceiling: Unl
Heat Index: 39°   Visibility: 6mi
Dew Point: 34°   Wind: 2mph
Humidity: 81%   Direction: NA
Pressure: 30.24"   Gusts: NA
Location:  41.62°N, 2.67°E
Report Text: LEGE 270100Z VRB02KT 9999 FEW060 04/01 Q1024
Loading
Personal Weather Stations






























Interactive Weather Map New forecast layout! Learn more

10-Day Weather Forecast

Advertisements
Track Severe Weather on mobile